sensor_id;sensor_type;location;lat;lon;timestamp;temperature;humidity
28087;DHT22;15392;48.912;8.380;2022-09-17T00:02:25;17.40;54.80
28087;DHT22;15392;48.912;8.380;2022-09-17T00:05:31;17.40;54.80
28087;DHT22;15392;48.912;8.380;2022-09-17T00:08:39;17.30;54.80
28087;DHT22;15392;48.912;8.380;2022-09-17T00:11:46;17.30;55.00
28087;DHT22;15392;48.912;8.380;2022-09-17T00:14:52;17.40;54.90
28087;DHT22;15392;48.912;8.380;2022-09-17T00:17:59;17.30;54.80
28087;DHT22;15392;48.912;8.380;2022-09-17T00:21:06;17.30;54.80
28087;DHT22;15392;48.912;8.380;2022-09-17T00:24:14;17.30;54.90
28087;DHT22;15392;48.912;8.380;2022-09-17T00:27:21;17.30;55.00
28087;DHT22;15392;48.912;8.380;2022-09-17T00:30:27;17.30;55.00
28087;DHT22;15392;48.912;8.380;2022-09-17T00:33:34;17.30;54.90
28087;DHT22;15392;48.912;8.380;2022-09-17T00:36:41;17.30;54.90
28087;DHT22;15392;48.912;8.380;2022-09-17T00:39:47;17.30;54.80
28087;DHT22;15392;48.912;8.380;2022-09-17T00:42:54;17.30;54.80
28087;DHT22;15392;48.912;8.380;2022-09-17T00:46:02;17.30;54.70
28087;DHT22;15392;48.912;8.380;2022-09-17T00:52:31;17.30;55.10
28087;DHT22;15392;48.912;8.380;2022-09-17T00:55:49;17.30;55.10
28087;DHT22;15392;48.912;8.380;2022-09-17T00:59:00;17.30;55.10
28087;DHT22;15392;48.912;8.380;2022-09-17T01:02:07;17.30;54.90
28087;DHT22;15392;48.912;8.380;2022-09-17T01:05:14;17.30;55.00
28087;DHT22;15392;48.912;8.380;2022-09-17T01:08:37;17.30;54.90
28087;DHT22;15392;48.912;8.380;2022-09-17T01:19:56;17.20;54.80
28087;DHT22;15392;48.912;8.380;2022-09-17T01:31:07;17.10;54.70
28087;DHT22;15392;48.912;8.380;2022-09-17T01:38:39;17.10;55.00
28087;DHT22;15392;48.912;8.380;2022-09-17T01:45:16;17.00;55.10
28087;DHT22;15392;48.912;8.380;2022-09-17T01:48:33;17.10;55.00
28087;DHT22;15392;48.912;8.380;2022-09-17T01:51:45;17.00;54.90
28087;DHT22;15392;48.912;8.380;2022-09-17T01:54:56;17.00;55.00
28087;DHT22;15392;48.912;8.380;2022-09-17T01:58:28;17.00;54.80
28087;DHT22;15392;48.912;8.380;2022-09-17T02:01:41;16.90;55.20
28087;DHT22;15392;48.912;8.380;2022-09-17T02:04:59;16.90;54.90
28087;DHT22;15392;48.912;8.380;2022-09-17T02:08:13;16.90;54.90
28087;DHT22;15392;48.912;8.380;2022-09-17T02:11:21;16.80;54.90
28087;DHT22;15392;48.912;8.380;2022-09-17T02:14:31;16.80;55.20
28087;DHT22;15392;48.912;8.380;2022-09-17T02:17:48;16.80;54.70
28087;DHT22;15392;48.912;8.380;2022-09-17T02:21:07;16.70;54.80
28087;DHT22;15392;48.912;8.380;2022-09-17T02:24:55;16.70;55.00
28087;DHT22;15392;48.912;8.380;2022-09-17T02:28:14;16.70;55.30
28087;DHT22;15392;48.912;8.380;2022-09-17T02:31:25;16.70;55.20
28087;DHT22;15392;48.912;8.380;2022-09-17T02:34:31;16.60;54.90
28087;DHT22;15392;48.912;8.380;2022-09-17T02:37:38;16.60;55.00
28087;DHT22;15392;48.912;8.380;2022-09-17T02:40:50;16.50;54.90
28087;DHT22;15392;48.912;8.380;2022-09-17T02:51:56;16.50;55.20
28087;DHT22;15392;48.912;8.380;2022-09-17T02:55:25;16.40;55.10
28087;DHT22;15392;48.912;8.380;2022-09-17T02:58:51;16.40;55.10
28087;DHT22;15392;48.912;8.380;2022-09-17T03:02:11;16.40;55.10
28087;DHT22;15392;48.912;8.380;2022-09-17T03:05:35;16.30;55.10
28087;DHT22;15392;48.912;8.380;2022-09-17T03:08:43;16.30;54.90
28087;DHT22;15392;48.912;8.380;2022-09-17T03:11:50;16.30;54.80
28087;DHT22;15392;48.912;8.380;2022-09-17T03:14:56;16.30;54.80
28087;DHT22;15392;48.912;8.380;2022-09-17T03:18:03;16.20;54.80
28087;DHT22;15392;48.912;8.380;2022-09-17T03:21:09;16.20;54.80
28087;DHT22;15392;48.912;8.380;2022-09-17T03:24:17;16.20;54.90
28087;DHT22;15392;48.912;8.380;2022-09-17T03:27:23;16.20;54.90
28087;DHT22;15392;48.912;8.380;2022-09-17T03:30:30;16.10;54.80
28087;DHT22;15392;48.912;8.380;2022-09-17T03:33:36;16.20;54.90
28087;DHT22;15392;48.912;8.380;2022-09-17T03:36:42;16.10;54.90
28087;DHT22;15392;48.912;8.380;2022-09-17T03:39:48;16.10;54.90
28087;DHT22;15392;48.912;8.380;2022-09-17T03:42:55;16.10;54.80
28087;DHT22;15392;48.912;8.380;2022-09-17T03:46:01;16.10;55.00
28087;DHT22;15392;48.912;8.380;2022-09-17T03:49:08;16.00;55.00
28087;DHT22;15392;48.912;8.380;2022-09-17T03:52:14;16.00;55.10
28087;DHT22;15392;48.912;8.380;2022-09-17T03:55:20;16.00;55.20
28087;DHT22;15392;48.912;8.380;2022-09-17T03:58:28;16.00;55.20
28087;DHT22;15392;48.912;8.380;2022-09-17T04:01:35;16.00;55.10
28087;DHT22;15392;48.912;8.380;2022-09-17T04:04:41;16.00;55.00
28087;DHT22;15392;48.912;8.380;2022-09-17T04:07:48;16.00;55.00
28087;DHT22;15392;48.912;8.380;2022-09-17T04:10:54;16.00;55.10
28087;DHT22;15392;48.912;8.380;2022-09-17T04:14:00;16.00;55.10
28087;DHT22;15392;48.912;8.380;2022-09-17T04:17:07;16.00;55.20
28087;DHT22;15392;48.912;8.380;2022-09-17T04:20:13;16.00;55.10
28087;DHT22;15392;48.912;8.380;2022-09-17T04:23:19;16.00;55.10
28087;DHT22;15392;48.912;8.380;2022-09-17T04:26:26;16.00;55.00
28087;DHT22;15392;48.912;8.380;2022-09-17T04:29:32;16.00;55.00
28087;DHT22;15392;48.912;8.380;2022-09-17T04:32:39;16.00;55.00
28087;DHT22;15392;48.912;8.380;2022-09-17T04:35:45;16.00;55.00
28087;DHT22;15392;48.912;8.380;2022-09-17T04:38:52;16.00;55.00
28087;DHT22;15392;48.912;8.380;2022-09-17T04:41:58;16.00;55.00
28087;DHT22;15392;48.912;8.380;2022-09-17T04:45:05;16.00;55.00
28087;DHT22;15392;48.912;8.380;2022-09-17T04:48:12;16.10;55.10
28087;DHT22;15392;48.912;8.380;2022-09-17T04:51:18;16.10;55.00
28087;DHT22;15392;48.912;8.380;2022-09-17T04:54:24;16.00;55.00
28087;DHT22;15392;48.912;8.380;2022-09-17T04:57:31;16.00;55.00
28087;DHT22;15392;48.912;8.380;2022-09-17T05:00:37;16.10;55.10
28087;DHT22;15392;48.912;8.380;2022-09-17T05:03:44;16.10;54.90
28087;DHT22;15392;48.912;8.380;2022-09-17T05:06:51;16.10;54.90
28087;DHT22;15392;48.912;8.380;2022-09-17T05:09:57;16.00;54.80
28087;DHT22;15392;48.912;8.380;2022-09-17T05:13:03;16.00;55.00
28087;DHT22;15392;48.912;8.380;2022-09-17T05:16:10;16.10;55.00
28087;DHT22;15392;48.912;8.380;2022-09-17T05:19:16;16.10;54.90
28087;DHT22;15392;48.912;8.380;2022-09-17T05:22:23;16.10;54.80
28087;DHT22;15392;48.912;8.380;2022-09-17T05:25:30;16.10;55.30
28087;DHT22;15392;48.912;8.380;2022-09-17T05:28:37;16.00;54.70
28087;DHT22;15392;48.912;8.380;2022-09-17T05:31:43;16.00;54.60
28087;DHT22;15392;48.912;8.380;2022-09-17T05:34:50;16.00;54.50
28087;DHT22;15392;48.912;8.380;2022-09-17T05:38:01;16.00;54.50
28087;DHT22;15392;48.912;8.380;2022-09-17T05:41:09;16.00;54.40
28087;DHT22;15392;48.912;8.380;2022-09-17T05:44:15;15.90;54.40
28087;DHT22;15392;48.912;8.380;2022-09-17T05:47:21;15.90;54.50
28087;DHT22;15392;48.912;8.380;2022-09-17T05:50:29;15.90;54.50
28087;DHT22;15392;48.912;8.380;2022-09-17T05:53:36;15.90;54.60
28087;DHT22;15392;48.912;8.380;2022-09-17T05:56:42;15.90;54.70
28087;DHT22;15392;48.912;8.380;2022-09-17T05:59:49;15.90;54.50
28087;DHT22;15392;48.912;8.380;2022-09-17T06:02:56;15.80;54.40
28087;DHT22;15392;48.912;8.380;2022-09-17T06:06:02;15.80;54.40
28087;DHT22;15392;48.912;8.380;2022-09-17T06:09:09;15.80;54.50
28087;DHT22;15392;48.912;8.380;2022-09-17T06:12:16;15.80;54.70
28087;DHT22;15392;48.912;8.380;2022-09-17T06:15:22;15.80;55.00
28087;DHT22;15392;48.912;8.380;2022-09-17T06:18:29;15.80;55.20
28087;DHT22;15392;48.912;8.380;2022-09-17T06:21:36;15.80;55.50
28087;DHT22;15392;48.912;8.380;2022-09-17T06:24:42;15.70;55.50
28087;DHT22;15392;48.912;8.380;2022-09-17T06:27:49;15.70;55.50
28087;DHT22;15392;48.912;8.380;2022-09-17T06:31:00;15.60;55.50
28087;DHT22;15392;48.912;8.380;2022-09-17T06:34:10;15.60;56.30
28087;DHT22;15392;48.912;8.380;2022-09-17T06:37:17;15.50;55.50
28087;DHT22;15392;48.912;8.380;2022-09-17T06:40:23;15.50;55.70
28087;DHT22;15392;48.912;8.380;2022-09-17T06:43:30;15.40;55.70
28087;DHT22;15392;48.912;8.380;2022-09-17T06:46:36;15.40;55.80
28087;DHT22;15392;48.912;8.380;2022-09-17T06:49:43;15.40;56.10
28087;DHT22;15392;48.912;8.380;2022-09-17T06:52:51;15.40;56.20
28087;DHT22;15392;48.912;8.380;2022-09-17T06:55:59;15.40;56.10
28087;DHT22;15392;48.912;8.380;2022-09-17T06:59:06;15.30;56.10
28087;DHT22;15392;48.912;8.380;2022-09-17T07:02:12;15.30;56.30
28087;DHT22;15392;48.912;8.380;2022-09-17T07:05:19;15.30;56.40
28087;DHT22;15392;48.912;8.380;2022-09-17T07:08:25;15.30;56.20
28087;DHT22;15392;48.912;8.380;2022-09-17T07:11:32;15.40;56.20
28087;DHT22;15392;48.912;8.380;2022-09-17T07:14:38;15.30;56.20
28087;DHT22;15392;48.912;8.380;2022-09-17T07:17:44;15.40;56.20
28087;DHT22;15392;48.912;8.380;2022-09-17T07:20:59;15.40;56.30
28087;DHT22;15392;48.912;8.380;2022-09-17T07:24:07;15.40;56.50
28087;DHT22;15392;48.912;8.380;2022-09-17T07:27:13;15.40;56.40
28087;DHT22;15392;48.912;8.380;2022-09-17T07:30:20;15.40;56.30
28087;DHT22;15392;48.912;8.380;2022-09-17T07:33:26;15.40;56.30
28087;DHT22;15392;48.912;8.380;2022-09-17T07:36:33;15.50;56.40
28087;DHT22;15392;48.912;8.380;2022-09-17T07:39:39;15.50;56.40
28087;DHT22;15392;48.912;8.380;2022-09-17T07:42:45;15.50;56.30
28087;DHT22;15392;48.912;8.380;2022-09-17T07:45:53;15.50;56.30
28087;DHT22;15392;48.912;8.380;2022-09-17T07:48:59;15.60;56.40
28087;DHT22;15392;48.912;8.380;2022-09-17T07:52:06;15.60;56.40
28087;DHT22;15392;48.912;8.380;2022-09-17T07:55:13;15.60;56.40
28087;DHT22;15392;48.912;8.380;2022-09-17T07:58:21;15.70;56.50
28087;DHT22;15392;48.912;8.380;2022-09-17T08:01:28;15.70;56.40
28087;DHT22;15392;48.912;8.380;2022-09-17T08:04:34;15.80;56.40
28087;DHT22;15392;48.912;8.380;2022-09-17T08:07:40;15.80;56.50
28087;DHT22;15392;48.912;8.380;2022-09-17T08:10:47;15.90;56.50
28087;DHT22;15392;48.912;8.380;2022-09-17T08:13:53;15.90;56.30
28087;DHT22;15392;48.912;8.380;2022-09-17T08:17:00;15.90;56.10
28087;DHT22;15392;48.912;8.380;2022-09-17T08:20:06;16.00;56.00
28087;DHT22;15392;48.912;8.380;2022-09-17T08:23:13;16.00;55.80
28087;DHT22;15392;48.912;8.380;2022-09-17T08:26:21;16.00;55.70
28087;DHT22;15392;48.912;8.380;2022-09-17T08:29:28;16.00;55.80
28087;DHT22;15392;48.912;8.380;2022-09-17T08:32:34;16.00;55.60
28087;DHT22;15392;48.912;8.380;2022-09-17T08:35:41;16.10;55.60
28087;DHT22;15392;48.912;8.380;2022-09-17T08:38:52;16.10;55.80
28087;DHT22;15392;48.912;8.380;2022-09-17T08:45:36;16.10;56.00
28087;DHT22;15392;48.912;8.380;2022-09-17T08:48:48;16.10;55.70
28087;DHT22;15392;48.912;8.380;2022-09-17T08:56:15;16.20;56.20
28087;DHT22;15392;48.912;8.380;2022-09-17T08:59:33;16.20;56.00
28087;DHT22;15392;48.912;8.380;2022-09-17T09:05:54;16.20;55.70
28087;DHT22;15392;48.912;8.380;2022-09-17T09:09:14;16.30;55.70
28087;DHT22;15392;48.912;8.380;2022-09-17T09:12:25;16.30;55.80
28087;DHT22;15392;48.912;8.380;2022-09-17T09:15:41;16.30;55.90
28087;DHT22;15392;48.912;8.380;2022-09-17T09:18:53;16.40;55.90
28087;DHT22;15392;48.912;8.380;2022-09-17T09:22:26;16.40;55.70
28087;DHT22;15392;48.912;8.380;2022-09-17T09:25:54;16.50;55.90
28087;DHT22;15392;48.912;8.380;2022-09-17T09:33:14;16.60;55.70
28087;DHT22;15392;48.912;8.380;2022-09-17T09:36:27;16.70;55.90
28087;DHT22;15392;48.912;8.380;2022-09-17T09:39:36;16.70;55.50
28087;DHT22;15392;48.912;8.380;2022-09-17T09:42:45;16.80;55.60
28087;DHT22;15392;48.912;8.380;2022-09-17T09:49:52;16.90;55.50
28087;DHT22;15392;48.912;8.380;2022-09-17T10:00:37;17.00;55.30
28087;DHT22;15392;48.912;8.380;2022-09-17T10:03:46;17.10;55.10
28087;DHT22;15392;48.912;8.380;2022-09-17T10:07:05;17.10;55.20
28087;DHT22;15392;48.912;8.380;2022-09-17T10:10:13;17.20;55.20
28087;DHT22;15392;48.912;8.380;2022-09-17T10:13:19;17.20;55.20
28087;DHT22;15392;48.912;8.380;2022-09-17T10:16:26;17.30;55.10
28087;DHT22;15392;48.912;8.380;2022-09-17T10:19:34;17.30;55.30
28087;DHT22;15392;48.912;8.380;2022-09-17T10:22:42;17.40;55.40
28087;DHT22;15392;48.912;8.380;2022-09-17T10:25:51;17.50;55.30
28087;DHT22;15392;48.912;8.380;2022-09-17T10:29:04;17.60;55.10
28087;DHT22;15392;48.912;8.380;2022-09-17T10:32:19;17.70;55.00
28087;DHT22;15392;48.912;8.380;2022-09-17T10:35:27;17.80;54.70
28087;DHT22;15392;48.912;8.380;2022-09-17T10:38:37;17.90;54.70
28087;DHT22;15392;48.912;8.380;2022-09-17T10:45:30;18.00;54.10
28087;DHT22;15392;48.912;8.380;2022-09-17T10:48:56;18.00;54.00
28087;DHT22;15392;48.912;8.380;2022-09-17T10:52:31;18.10;54.00
28087;DHT22;15392;48.912;8.380;2022-09-17T10:59:25;18.10;54.20
28087;DHT22;15392;48.912;8.380;2022-09-17T11:07:11;18.20;54.50
28087;DHT22;15392;48.912;8.380;2022-09-17T11:17:53;18.40;54.10
28087;DHT22;15392;48.912;8.380;2022-09-17T11:29:18;18.60;54.00
28087;DHT22;15392;48.912;8.380;2022-09-17T11:33:13;18.60;53.50
28087;DHT22;15392;48.912;8.380;2022-09-17T11:36:29;18.70;53.90
28087;DHT22;15392;48.912;8.380;2022-09-17T11:39:52;18.70;54.20
28087;DHT22;15392;48.912;8.380;2022-09-17T11:43:02;18.60;54.30
28087;DHT22;15392;48.912;8.380;2022-09-17T11:46:45;18.60;54.30
28087;DHT22;15392;48.912;8.380;2022-09-17T11:50:08;18.60;54.00
28087;DHT22;15392;48.912;8.380;2022-09-17T11:56:48;18.60;54.00
28087;DHT22;15392;48.912;8.380;2022-09-17T12:03:29;18.60;54.80
28087;DHT22;15392;48.912;8.380;2022-09-17T12:06:45;18.60;55.00
28087;DHT22;15392;48.912;8.380;2022-09-17T12:13:54;18.40;57.40
28087;DHT22;15392;48.912;8.380;2022-09-17T12:17:03;18.30;57.10
28087;DHT22;15392;48.912;8.380;2022-09-17T12:20:32;18.20;57.40
28087;DHT22;15392;48.912;8.380;2022-09-17T12:23:55;18.10;58.40
28087;DHT22;15392;48.912;8.380;2022-09-17T12:30:58;17.90;59.30
28087;DHT22;15392;48.912;8.380;2022-09-17T12:48:47;17.60;59.50
28087;DHT22;15392;48.912;8.380;2022-09-17T12:52:10;17.60;59.30
28087;DHT22;15392;48.912;8.380;2022-09-17T12:59:17;17.50;59.30
28087;DHT22;15392;48.912;8.380;2022-09-17T13:02:45;17.50;58.20
28087;DHT22;15392;48.912;8.380;2022-09-17T13:10:18;17.60;58.00
28087;DHT22;15392;48.912;8.380;2022-09-17T13:13:57;17.60;57.90
28087;DHT22;15392;48.912;8.380;2022-09-17T13:17:36;17.60;58.20
28087;DHT22;15392;48.912;8.380;2022-09-17T13:21:07;17.60;58.60
28087;DHT22;15392;48.912;8.380;2022-09-17T13:24:20;17.70;57.70
28087;DHT22;15392;48.912;8.380;2022-09-17T13:27:30;17.70;57.30
28087;DHT22;15392;48.912;8.380;2022-09-17T13:30:58;17.70;57.30
28087;DHT22;15392;48.912;8.380;2022-09-17T13:34:26;17.80;58.00
28087;DHT22;15392;48.912;8.380;2022-09-17T13:41:17;17.90;57.30
28087;DHT22;15392;48.912;8.380;2022-09-17T13:44:26;18.00;57.40
28087;DHT22;15392;48.912;8.380;2022-09-17T13:47:34;18.00;56.90
28087;DHT22;15392;48.912;8.380;2022-09-17T13:50:43;18.10;56.80
28087;DHT22;15392;48.912;8.380;2022-09-17T13:53:53;18.10;56.60
28087;DHT22;15392;48.912;8.380;2022-09-17T13:57:06;18.20;56.40
28087;DHT22;15392;48.912;8.380;2022-09-17T14:04:03;18.20;55.90
28087;DHT22;15392;48.912;8.380;2022-09-17T14:10:34;18.30;56.30
28087;DHT22;15392;48.912;8.380;2022-09-17T14:13:46;18.30;56.40
28087;DHT22;15392;48.912;8.380;2022-09-17T14:16:53;18.30;56.00
28087;DHT22;15392;48.912;8.380;2022-09-17T14:19:59;18.30;55.90
28087;DHT22;15392;48.912;8.380;2022-09-17T14:23:09;18.30;56.00
28087;DHT22;15392;48.912;8.380;2022-09-17T14:30:30;18.30;56.20
28087;DHT22;15392;48.912;8.380;2022-09-17T14:33:38;18.40;57.10
28087;DHT22;15392;48.912;8.380;2022-09-17T14:36:45;18.40;56.70
28087;DHT22;15392;48.912;8.380;2022-09-17T14:39:52;18.40;56.60
28087;DHT22;15392;48.912;8.380;2022-09-17T14:42:59;18.50;56.60
28087;DHT22;15392;48.912;8.380;2022-09-17T14:46:09;18.50;56.30
28087;DHT22;15392;48.912;8.380;2022-09-17T14:49:31;18.60;56.40
28087;DHT22;15392;48.912;8.380;2022-09-17T14:52:39;18.60;56.50
28087;DHT22;15392;48.912;8.380;2022-09-17T14:55:47;18.60;56.10
28087;DHT22;15392;48.912;8.380;2022-09-17T14:58:55;18.60;55.60
28087;DHT22;15392;48.912;8.380;2022-09-17T15:02:01;18.60;55.50
28087;DHT22;15392;48.912;8.380;2022-09-17T15:05:18;18.60;55.20
28087;DHT22;15392;48.912;8.380;2022-09-17T15:08:27;18.70;54.80
28087;DHT22;15392;48.912;8.380;2022-09-17T15:11:39;18.60;54.80
28087;DHT22;15392;48.912;8.380;2022-09-17T15:14:47;18.70;54.60
28087;DHT22;15392;48.912;8.380;2022-09-17T15:17:53;18.70;54.80
28087;DHT22;15392;48.912;8.380;2022-09-17T15:21:00;18.70;54.80
28087;DHT22;15392;48.912;8.380;2022-09-17T15:24:22;18.70;54.90
28087;DHT22;15392;48.912;8.380;2022-09-17T15:27:54;18.70;54.90
28087;DHT22;15392;48.912;8.380;2022-09-17T15:31:04;18.80;54.90
28087;DHT22;15392;48.912;8.380;2022-09-17T15:34:11;18.80;54.90
28087;DHT22;15392;48.912;8.380;2022-09-17T15:37:20;18.90;55.00
28087;DHT22;15392;48.912;8.380;2022-09-17T15:40:36;18.90;54.70
28087;DHT22;15392;48.912;8.380;2022-09-17T15:43:45;18.90;54.50
28087;DHT22;15392;48.912;8.380;2022-09-17T15:46:53;18.90;54.50
28087;DHT22;15392;48.912;8.380;2022-09-17T15:50:26;19.00;54.50
28087;DHT22;15392;48.912;8.380;2022-09-17T15:53:36;19.00;54.00
28087;DHT22;15392;48.912;8.380;2022-09-17T15:56:42;19.00;54.20
28087;DHT22;15392;48.912;8.380;2022-09-17T16:00:06;19.00;54.10
28087;DHT22;15392;48.912;8.380;2022-09-17T16:10:16;19.00;53.70
28087;DHT22;15392;48.912;8.380;2022-09-17T16:13:23;18.90;54.00
28087;DHT22;15392;48.912;8.380;2022-09-17T16:16:33;18.90;53.90
28087;DHT22;15392;48.912;8.380;2022-09-17T16:19:40;18.80;53.70
28087;DHT22;15392;48.912;8.380;2022-09-17T16:22:48;18.80;53.80
28087;DHT22;15392;48.912;8.380;2022-09-17T16:25:56;18.70;53.90
28087;DHT22;15392;48.912;8.380;2022-09-17T16:29:06;18.70;53.80
28087;DHT22;15392;48.912;8.380;2022-09-17T16:32:15;18.60;53.80
28087;DHT22;15392;48.912;8.380;2022-09-17T16:35:23;18.60;54.00
28087;DHT22;15392;48.912;8.380;2022-09-17T16:38:31;18.50;54.20
28087;DHT22;15392;48.912;8.380;2022-09-17T16:41:37;18.50;54.60
28087;DHT22;15392;48.912;8.380;2022-09-17T16:44:44;18.40;54.80
28087;DHT22;15392;48.912;8.380;2022-09-17T16:47:50;18.40;55.00
28087;DHT22;15392;48.912;8.380;2022-09-17T16:50:56;18.30;55.00
28087;DHT22;15392;48.912;8.380;2022-09-17T16:54:03;18.30;55.10
28087;DHT22;15392;48.912;8.380;2022-09-17T16:57:09;18.20;55.10
28087;DHT22;15392;48.912;8.380;2022-09-17T17:00:18;18.20;55.20
28087;DHT22;15392;48.912;8.380;2022-09-17T17:03:26;18.10;55.20
28087;DHT22;15392;48.912;8.380;2022-09-17T17:06:32;18.10;55.40
28087;DHT22;15392;48.912;8.380;2022-09-17T17:09:38;18.10;55.60
28087;DHT22;15392;48.912;8.380;2022-09-17T17:12:45;18.00;55.80
28087;DHT22;15392;48.912;8.380;2022-09-17T17:15:51;18.00;55.90
28087;DHT22;15392;48.912;8.380;2022-09-17T17:18:58;18.00;56.10
28087;DHT22;15392;48.912;8.380;2022-09-17T17:22:04;18.00;56.20
28087;DHT22;15392;48.912;8.380;2022-09-17T17:25:13;18.00;56.20
28087;DHT22;15392;48.912;8.380;2022-09-17T17:28:19;18.00;56.00
28087;DHT22;15392;48.912;8.380;2022-09-17T17:31:26;18.00;55.90
28087;DHT22;15392;48.912;8.380;2022-09-17T17:34:32;18.00;55.70
28087;DHT22;15392;48.912;8.380;2022-09-17T17:37:39;18.00;55.80
28087;DHT22;15392;48.912;8.380;2022-09-17T17:40:45;17.90;55.80
28087;DHT22;15392;48.912;8.380;2022-09-17T17:43:52;17.90;55.50
28087;DHT22;15392;48.912;8.380;2022-09-17T17:46:59;17.90;55.40
28087;DHT22;15392;48.912;8.380;2022-09-17T17:50:06;17.90;55.30
28087;DHT22;15392;48.912;8.380;2022-09-17T17:53:13;17.90;55.30
28087;DHT22;15392;48.912;8.380;2022-09-17T17:56:19;17.80;55.10
28087;DHT22;15392;48.912;8.380;2022-09-17T17:59:26;17.90;55.10
28087;DHT22;15392;48.912;8.380;2022-09-17T18:02:32;17.80;55.00
28087;DHT22;15392;48.912;8.380;2022-09-17T18:05:39;17.90;55.10
28087;DHT22;15392;48.912;8.380;2022-09-17T18:08:45;17.80;55.00
28087;DHT22;15392;48.912;8.380;2022-09-17T18:11:52;17.80;54.90
28087;DHT22;15392;48.912;8.380;2022-09-17T18:14:59;17.80;54.90
28087;DHT22;15392;48.912;8.380;2022-09-17T18:18:05;17.80;54.90
28087;DHT22;15392;48.912;8.380;2022-09-17T18:21:15;17.80;54.80
28087;DHT22;15392;48.912;8.380;2022-09-17T18:24:23;17.80;54.70
28087;DHT22;15392;48.912;8.380;2022-09-17T18:27:29;17.70;54.60
28087;DHT22;15392;48.912;8.380;2022-09-17T18:30:36;17.70;54.70
28087;DHT22;15392;48.912;8.380;2022-09-17T18:33:42;17.70;54.70
28087;DHT22;15392;48.912;8.380;2022-09-17T18:36:49;17.60;54.70
28087;DHT22;15392;48.912;8.380;2022-09-17T18:39:57;17.60;54.90
28087;DHT22;15392;48.912;8.380;2022-09-17T18:43:03;17.60;54.90
28087;DHT22;15392;48.912;8.380;2022-09-17T18:46:10;17.60;54.70
28087;DHT22;15392;48.912;8.380;2022-09-17T18:49:16;17.60;54.60
28087;DHT22;15392;48.912;8.380;2022-09-17T18:52:22;17.50;54.80
28087;DHT22;15392;48.912;8.380;2022-09-17T18:55:29;17.50;55.10
28087;DHT22;15392;48.912;8.380;2022-09-17T18:58:36;17.40;55.30
28087;DHT22;15392;48.912;8.380;2022-09-17T19:01:42;17.30;55.40
28087;DHT22;15392;48.912;8.380;2022-09-17T19:04:48;17.30;55.40
28087;DHT22;15392;48.912;8.380;2022-09-17T19:07:55;17.20;55.60
28087;DHT22;15392;48.912;8.380;2022-09-17T19:11:02;17.20;55.70
28087;DHT22;15392;48.912;8.380;2022-09-17T19:14:09;17.10;55.60
28087;DHT22;15392;48.912;8.380;2022-09-17T19:17:15;17.10;55.80
28087;DHT22;15392;48.912;8.380;2022-09-17T19:20:22;17.00;55.80
28087;DHT22;15392;48.912;8.380;2022-09-17T19:23:30;17.00;55.90
28087;DHT22;15392;48.912;8.380;2022-09-17T19:26:37;16.90;55.80
28087;DHT22;15392;48.912;8.380;2022-09-17T19:29:43;16.90;55.80
28087;DHT22;15392;48.912;8.380;2022-09-17T19:32:50;16.80;55.80
28087;DHT22;15392;48.912;8.380;2022-09-17T19:36:01;16.80;55.80
28087;DHT22;15392;48.912;8.380;2022-09-17T19:39:08;16.80;55.90
28087;DHT22;15392;48.912;8.380;2022-09-17T19:42:14;16.70;55.80
28087;DHT22;15392;48.912;8.380;2022-09-17T19:45:21;16.70;55.80
28087;DHT22;15392;48.912;8.380;2022-09-17T19:48:28;16.70;55.90
28087;DHT22;15392;48.912;8.380;2022-09-17T19:51:35;16.70;55.80
28087;DHT22;15392;48.912;8.380;2022-09-17T19:54:42;16.70;56.00
28087;DHT22;15392;48.912;8.380;2022-09-17T19:57:49;16.60;55.80
28087;DHT22;15392;48.912;8.380;2022-09-17T20:00:58;16.60;55.80
28087;DHT22;15392;48.912;8.380;2022-09-17T20:04:05;16.60;55.80
28087;DHT22;15392;48.912;8.380;2022-09-17T20:07:12;16.60;55.90
28087;DHT22;15392;48.912;8.380;2022-09-17T20:10:18;16.60;56.00
28087;DHT22;15392;48.912;8.380;2022-09-17T20:13:24;16.60;56.00
28087;DHT22;15392;48.912;8.380;2022-09-17T20:16:35;16.60;56.00
28087;DHT22;15392;48.912;8.380;2022-09-17T20:19:43;16.60;56.00
28087;DHT22;15392;48.912;8.380;2022-09-17T20:22:50;16.60;56.00
28087;DHT22;15392;48.912;8.380;2022-09-17T20:25:56;16.60;56.10
28087;DHT22;15392;48.912;8.380;2022-09-17T20:29:03;16.60;56.00
28087;DHT22;15392;48.912;8.380;2022-09-17T20:32:09;16.60;56.00
28087;DHT22;15392;48.912;8.380;2022-09-17T20:35:16;16.60;55.90
28087;DHT22;15392;48.912;8.380;2022-09-17T20:38:22;16.60;56.00
28087;DHT22;15392;48.912;8.380;2022-09-17T20:41:28;16.60;56.00
28087;DHT22;15392;48.912;8.380;2022-09-17T20:44:36;16.60;56.00
28087;DHT22;15392;48.912;8.380;2022-09-17T20:47:43;16.60;56.00
28087;DHT22;15392;48.912;8.380;2022-09-17T20:50:57;16.60;56.20
28087;DHT22;15392;48.912;8.380;2022-09-17T20:54:09;16.60;55.90
28087;DHT22;15392;48.912;8.380;2022-09-17T20:57:15;16.60;55.80
28087;DHT22;15392;48.912;8.380;2022-09-17T21:00:21;16.60;55.80
28087;DHT22;15392;48.912;8.380;2022-09-17T21:03:30;16.60;55.80
28087;DHT22;15392;48.912;8.380;2022-09-17T21:06:38;16.60;55.80
28087;DHT22;15392;48.912;8.380;2022-09-17T21:09:47;16.60;55.80
28087;DHT22;15392;48.912;8.380;2022-09-17T21:12:54;16.60;55.80
28087;DHT22;15392;48.912;8.380;2022-09-17T21:16:00;16.60;55.70
28087;DHT22;15392;48.912;8.380;2022-09-17T21:19:09;16.60;55.70
28087;DHT22;15392;48.912;8.380;2022-09-17T21:22:16;16.60;55.80
28087;DHT22;15392;48.912;8.380;2022-09-17T21:25:23;16.60;55.70
28087;DHT22;15392;48.912;8.380;2022-09-17T21:28:30;16.60;55.70
28087;DHT22;15392;48.912;8.380;2022-09-17T21:31:37;16.60;55.70
28087;DHT22;15392;48.912;8.380;2022-09-17T21:34:44;16.60;55.70
28087;DHT22;15392;48.912;8.380;2022-09-17T21:37:51;16.60;55.90
28087;DHT22;15392;48.912;8.380;2022-09-17T21:40:59;16.60;56.00
28087;DHT22;15392;48.912;8.380;2022-09-17T21:44:06;16.60;55.80
28087;DHT22;15392;48.912;8.380;2022-09-17T21:47:12;16.60;55.80
28087;DHT22;15392;48.912;8.380;2022-09-17T21:50:19;16.60;55.70
28087;DHT22;15392;48.912;8.380;2022-09-17T21:53:25;16.60;55.60
28087;DHT22;15392;48.912;8.380;2022-09-17T21:56:32;16.50;55.50
28087;DHT22;15392;48.912;8.380;2022-09-17T21:59:39;16.50;55.50
28087;DHT22;15392;48.912;8.380;2022-09-17T22:02:45;16.50;55.50
28087;DHT22;15392;48.912;8.380;2022-09-17T22:05:51;16.50;55.40
28087;DHT22;15392;48.912;8.380;2022-09-17T22:09:00;16.50;55.40
28087;DHT22;15392;48.912;8.380;2022-09-17T22:12:07;16.50;55.40
28087;DHT22;15392;48.912;8.380;2022-09-17T22:15:13;16.50;55.40
28087;DHT22;15392;48.912;8.380;2022-09-17T22:18:19;16.50;55.40
28087;DHT22;15392;48.912;8.380;2022-09-17T22:21:27;16.50;55.40
28087;DHT22;15392;48.912;8.380;2022-09-17T22:24:34;16.50;56.00
28087;DHT22;15392;48.912;8.380;2022-09-17T22:27:41;16.40;55.50